createdAt,value
2017-09-14T00:00:24.101Z,0
2017-09-14T00:01:04.606Z,0
2017-09-14T00:01:45.131Z,0
2017-09-14T00:02:25.658Z,0
2017-09-14T00:03:06.138Z,0
2017-09-14T00:03:46.672Z,0
2017-09-14T00:04:27.189Z,0
2017-09-14T00:05:07.682Z,0
2017-09-14T00:05:48.181Z,0
2017-09-14T00:06:28.707Z,0
2017-09-14T00:07:09.228Z,0
2017-09-14T00:07:49.718Z,0
2017-09-14T00:08:30.252Z,0
2017-09-14T00:09:10.787Z,0
2017-09-14T00:09:51.244Z,0
2017-09-14T00:10:31.753Z,0
2017-09-14T00:11:12.292Z,0
2017-09-14T00:11:52.803Z,0
2017-09-14T00:12:33.275Z,0
2017-09-14T00:13:13.766Z,0
2017-09-14T00:13:54.248Z,0
2017-09-14T00:14:34.743Z,0
2017-09-14T00:15:15.265Z,0
2017-09-14T00:15:55.755Z,0
2017-09-14T00:16:36.254Z,0
2017-09-14T00:17:16.782Z,0
2017-09-14T00:17:57.300Z,0
2017-09-14T00:18:37.819Z,0
2017-09-14T00:19:18.305Z,0
2017-09-14T00:19:58.822Z,0
2017-09-14T00:20:39.316Z,0
2017-09-14T00:21:19.812Z,0
2017-09-14T00:22:00.364Z,0
2017-09-14T00:22:40.821Z,0
2017-09-14T00:23:21.370Z,0
2017-09-14T00:24:01.860Z,0
2017-09-14T00:24:42.319Z,0
2017-09-14T00:25:22.801Z,0
2017-09-14T00:26:03.291Z,0
2017-09-14T00:26:43.799Z,0
2017-09-14T00:27:24.291Z,0
2017-09-14T00:28:04.804Z,0
2017-09-14T00:28:45.312Z,0
2017-09-14T00:29:25.816Z,0
2017-09-14T00:30:06.334Z,0
2017-09-14T00:30:46.863Z,0
2017-09-14T00:31:27.376Z,0
2017-09-14T00:32:07.879Z,0
2017-09-14T00:32:48.382Z,0
2017-09-14T00:33:28.892Z,0
2017-09-14T00:34:09.429Z,0
2017-09-14T00:34:49.938Z,0
2017-09-14T00:35:30.440Z,0
2017-09-14T00:36:10.923Z,0
2017-09-14T00:36:51.471Z,0
2017-09-14T00:37:31.993Z,0
2017-09-14T00:38:12.498Z,0
2017-09-14T00:38:53.041Z,0
2017-09-14T00:39:33.560Z,0
2017-09-14T00:40:14.043Z,0
2017-09-14T00:40:54.541Z,0
2017-09-14T00:41:35.060Z,0
2017-09-14T00:42:15.573Z,0
2017-09-14T00:42:56.059Z,0
2017-09-14T00:43:36.545Z,0
2017-09-14T00:44:17.062Z,0
2017-09-14T00:44:57.552Z,0
2017-09-14T00:45:38.094Z,0
2017-09-14T00:46:18.595Z,0
2017-09-14T00:46:59.102Z,0
2017-09-14T00:47:39.623Z,0
2017-09-14T00:48:20.137Z,0
2017-09-14T00:49:00.650Z,0
2017-09-14T00:49:41.162Z,0
2017-09-14T00:50:21.663Z,0
2017-09-14T00:51:02.171Z,0
2017-09-14T00:51:42.679Z,0
2017-09-14T00:52:23.179Z,0
2017-09-14T00:53:03.709Z,0
2017-09-14T00:53:44.257Z,0
2017-09-14T00:54:24.775Z,0
2017-09-14T00:55:05.298Z,0
2017-09-14T00:55:45.815Z,0
2017-09-14T00:56:26.356Z,0
2017-09-14T00:57:06.876Z,0
2017-09-14T00:57:47.362Z,0
2017-09-14T00:58:27.880Z,0
2017-09-14T00:59:08.388Z,0
2017-09-14T00:59:48.877Z,0
2017-09-14T01:00:29.402Z,0
2017-09-14T01:01:09.880Z,0
2017-09-14T01:01:50.402Z,0
2017-09-14T01:02:30.873Z,0
2017-09-14T01:03:11.387Z,0
2017-09-14T01:03:51.891Z,0
2017-09-14T01:04:32.395Z,0
2017-09-14T01:05:12.885Z,0
2017-09-14T01:05:53.402Z,0
2017-09-14T01:06:33.885Z,0
2017-09-14T01:07:14.398Z,0
2017-09-14T01:07:54.907Z,0
2017-09-14T01:08:35.410Z,0
2017-09-14T01:09:15.926Z,0
2017-09-14T01:09:56.420Z,0
2017-09-14T01:10:36.923Z,0
2017-09-14T01:11:17.497Z,0
2017-09-14T01:11:58.011Z,0
2017-09-14T01:12:38.479Z,0
2017-09-14T01:13:18.967Z,0
2017-09-14T01:13:59.492Z,0
2017-09-14T01:14:39.982Z,0
2017-09-14T01:15:20.490Z,0
2017-09-14T01:16:00.967Z,0
2017-09-14T01:16:41.472Z,0
2017-09-14T01:17:21.985Z,0
2017-09-14T01:18:02.504Z,0
2017-09-14T01:18:42.974Z,0
2017-09-14T01:19:23.505Z,0
2017-09-14T01:20:03.972Z,0
2017-09-14T01:20:44.476Z,0
2017-09-14T01:21:24.956Z,0
2017-09-14T01:22:05.449Z,0
2017-09-14T01:22:45.961Z,0
2017-09-14T01:23:26.476Z,0
2017-09-14T01:24:06.949Z,0
2017-09-14T01:24:47.469Z,0
2017-09-14T01:25:27.969Z,0
2017-09-14T01:26:08.469Z,0
2017-09-14T01:26:48.975Z,0
2017-09-14T01:27:29.486Z,0
2017-09-14T01:28:09.975Z,0
2017-09-14T01:28:50.501Z,0
2017-09-14T01:29:31.005Z,0
2017-09-14T01:30:11.497Z,0
2017-09-14T01:30:51.998Z,0
2017-09-14T01:31:32.520Z,0
2017-09-14T01:32:12.985Z,0
2017-09-14T01:32:53.523Z,0
2017-09-14T01:33:34.029Z,0
2017-09-14T01:34:14.535Z,0
2017-09-14T01:34:55.050Z,0
2017-09-14T01:35:35.552Z,0
2017-09-14T01:36:16.080Z,0
2017-09-14T01:36:56.633Z,0
2017-09-14T01:37:37.145Z,0
2017-09-14T01:38:17.646Z,0
2017-09-14T01:38:58.139Z,0
2017-09-14T01:39:38.663Z,0
2017-09-14T01:40:19.149Z,0
2017-09-14T01:40:59.671Z,0
2017-09-14T01:41:40.175Z,0
2017-09-14T01:42:20.737Z,0
2017-09-14T01:43:01.268Z,0
2017-09-14T01:43:41.797Z,0
2017-09-14T01:44:22.338Z,0
2017-09-14T01:45:02.834Z,0
2017-09-14T01:45:43.351Z,0
2017-09-14T01:46:23.856Z,0
2017-09-14T01:47:04.372Z,0
2017-09-14T01:47:44.904Z,0
2017-09-14T01:48:25.406Z,0
2017-09-14T01:49:05.926Z,0
2017-09-14T01:49:46.447Z,0
2017-09-14T01:50:26.923Z,0
2017-09-14T01:51:07.450Z,0
2017-09-14T01:51:47.945Z,0
2017-09-14T01:52:28.456Z,0
2017-09-14T01:53:08.991Z,0
2017-09-14T01:53:49.501Z,0
2017-09-14T01:54:30.032Z,0
2017-09-14T01:55:10.534Z,0
2017-09-14T01:55:51.042Z,0
2017-09-14T01:56:31.548Z,0
2017-09-14T01:57:12.046Z,0
2017-09-14T01:57:52.562Z,0
2017-09-14T01:58:33.056Z,0
2017-09-14T01:59:13.558Z,0
2017-09-14T01:59:54.075Z,0
2017-09-14T02:00:34.575Z,0
2017-09-14T02:01:15.095Z,0
2017-09-14T02:01:55.617Z,0
2017-09-14T02:02:36.135Z,0
2017-09-14T02:03:16.656Z,0
2017-09-14T02:03:57.182Z,0
2017-09-14T02:04:37.735Z,0
2017-09-14T02:05:18.229Z,0
2017-09-14T02:05:58.779Z,0
2017-09-14T02:06:39.274Z,0
2017-09-14T02:07:19.802Z,0
2017-09-14T02:08:00.318Z,0
2017-09-14T02:08:40.833Z,0
2017-09-14T02:09:21.358Z,0
2017-09-14T02:10:01.894Z,0
2017-09-14T02:10:42.425Z,0
2017-09-14T02:11:22.918Z,0
2017-09-14T02:12:03.432Z,0
2017-09-14T02:12:43.947Z,0
2017-09-14T02:13:24.489Z,0
2017-09-14T02:14:05.016Z,0
2017-09-14T02:14:45.530Z,0
2017-09-14T02:15:26.055Z,0
2017-09-14T02:16:06.547Z,0
2017-09-14T02:16:47.062Z,0
2017-09-14T02:17:27.567Z,0
2017-09-14T02:18:08.078Z,0
2017-09-14T02:18:48.582Z,0
2017-09-14T02:19:29.095Z,0
2017-09-14T02:20:09.630Z,0
2017-09-14T02:20:50.173Z,0
2017-09-14T02:21:30.709Z,0
2017-09-14T02:22:11.207Z,0
2017-09-14T02:22:51.725Z,0
2017-09-14T02:23:32.269Z,0
2017-09-14T02:24:12.792Z,0
2017-09-14T02:24:53.321Z,0
2017-09-14T02:25:33.804Z,0
2017-09-14T02:26:14.307Z,0
2017-09-14T02:26:54.837Z,0
2017-09-14T02:27:35.342Z,0
2017-09-14T02:28:15.849Z,0
2017-09-14T02:28:56.368Z,0
2017-09-14T02:29:36.893Z,0
2017-09-14T02:30:17.445Z,0
2017-09-14T02:30:57.964Z,0
2017-09-14T02:31:38.507Z,0
2017-09-14T02:32:19.009Z,0
2017-09-14T02:32:59.532Z,0
2017-09-14T02:33:40.064Z,0
2017-09-14T02:34:20.587Z,0
2017-09-14T02:35:01.123Z,0
2017-09-14T02:35:41.645Z,0
2017-09-14T02:36:22.172Z,0
2017-09-14T02:37:02.697Z,0
2017-09-14T02:37:43.231Z,0
2017-09-14T02:38:23.781Z,0
2017-09-14T02:39:04.320Z,0
2017-09-14T02:39:44.807Z,0
2017-09-14T02:40:25.355Z,0
2017-09-14T02:41:05.861Z,0
2017-09-14T02:41:46.356Z,0
2017-09-14T02:42:26.897Z,0
2017-09-14T02:43:07.391Z,0
2017-09-14T02:43:47.889Z,0
2017-09-14T02:44:28.430Z,0
2017-09-14T02:45:08.940Z,0
2017-09-14T02:45:49.465Z,0
2017-09-14T02:46:29.983Z,0
2017-09-14T02:47:10.543Z,0
2017-09-14T02:47:51.056Z,0
2017-09-14T02:48:31.563Z,0
2017-09-14T02:49:12.112Z,0
2017-09-14T02:49:52.635Z,0
2017-09-14T02:50:33.158Z,0
2017-09-14T02:51:13.658Z,0
2017-09-14T02:51:54.188Z,0
2017-09-14T02:52:34.712Z,0
2017-09-14T02:53:15.194Z,0
2017-09-14T02:53:55.706Z,0
2017-09-14T02:54:36.207Z,0
2017-09-14T02:55:16.712Z,0
2017-09-14T02:55:57.220Z,0
2017-09-14T02:56:37.769Z,0
2017-09-14T02:57:18.289Z,0
2017-09-14T02:57:58.805Z,0
2017-09-14T02:58:39.329Z,0
2017-09-14T02:59:19.830Z,0
2017-09-14T03:00:00.363Z,0
2017-09-14T03:00:40.884Z,0
2017-09-14T03:01:21.434Z,0
2017-09-14T03:02:01.946Z,0
2017-09-14T03:02:42.489Z,0
2017-09-14T03:03:23.009Z,0
2017-09-14T03:04:03.518Z,0
2017-09-14T03:04:44.035Z,0
2017-09-14T03:05:24.555Z,0
2017-09-14T03:06:05.091Z,0
2017-09-14T03:06:45.592Z,0
2017-09-14T03:07:26.110Z,0
2017-09-14T03:08:06.633Z,0
2017-09-14T03:08:47.154Z,0
2017-09-14T03:09:27.846Z,0
2017-09-14T03:10:08.334Z,0
2017-09-14T03:10:48.857Z,0
2017-09-14T03:11:29.389Z,0
2017-09-14T03:12:09.909Z,0
2017-09-14T03:12:50.425Z,0
2017-09-14T03:13:30.960Z,0
2017-09-14T03:14:11.467Z,0
2017-09-14T03:14:51.985Z,0
2017-09-14T03:15:32.501Z,0
2017-09-14T03:16:13.019Z,0
2017-09-14T03:16:53.554Z,0
2017-09-14T03:17:34.145Z,0
2017-09-14T03:18:14.638Z,0
2017-09-14T03:18:55.156Z,0
2017-09-14T03:19:35.643Z,0
2017-09-14T03:20:16.162Z,0
2017-09-14T03:20:56.689Z,0
2017-09-14T03:21:37.195Z,0
2017-09-14T03:22:17.713Z,0
2017-09-14T03:22:58.284Z,0
2017-09-14T03:23:38.776Z,0
2017-09-14T03:24:19.296Z,0
2017-09-14T03:24:59.833Z,0
2017-09-14T03:25:40.363Z,0
2017-09-14T03:26:20.877Z,0
2017-09-14T03:27:01.399Z,0
2017-09-14T03:27:41.899Z,0
2017-09-14T03:28:22.427Z,0
2017-09-14T03:29:02.910Z,0
2017-09-14T03:29:43.411Z,0
2017-09-14T03:30:23.950Z,0
2017-09-14T03:31:04.463Z,0
2017-09-14T03:31:45.010Z,0
2017-09-14T03:32:25.516Z,0
2017-09-14T03:33:06.060Z,0
2017-09-14T03:33:46.574Z,0
2017-09-14T03:34:27.095Z,0
2017-09-14T03:35:07.626Z,0
2017-09-14T03:35:48.144Z,0
2017-09-14T03:36:28.659Z,0
2017-09-14T03:37:09.226Z,0
2017-09-14T03:37:49.755Z,0
2017-09-14T03:38:30.267Z,0
2017-09-14T03:39:10.777Z,0
2017-09-14T03:39:51.282Z,0
2017-09-14T03:40:31.822Z,0
2017-09-14T03:41:12.350Z,0
2017-09-14T03:41:52.904Z,0
2017-09-14T03:42:33.444Z,0
2017-09-14T03:43:13.953Z,0
2017-09-14T03:43:54.513Z,0
2017-09-14T03:44:34.984Z,0
2017-09-14T03:45:15.496Z,0
2017-09-14T03:45:56.018Z,0
2017-09-14T03:46:36.522Z,0
2017-09-14T03:47:17.028Z,0
2017-09-14T03:47:57.553Z,0
2017-09-14T03:48:38.071Z,0
2017-09-14T03:49:18.608Z,0
2017-09-14T03:49:59.092Z,0
2017-09-14T03:50:40.084Z,0
2017-09-14T03:51:20.468Z,0
2017-09-14T03:52:01.745Z,0
2017-09-14T03:52:42.310Z,0
2017-09-14T03:53:22.816Z,0
2017-09-14T03:54:03.342Z,0
2017-09-14T03:54:43.851Z,0
2017-09-14T03:55:24.356Z,0
2017-09-14T03:56:04.878Z,0
2017-09-14T03:56:45.409Z,0
2017-09-14T03:57:25.925Z,0
2017-09-14T03:58:06.433Z,0
2017-09-14T03:58:46.959Z,0
2017-09-14T03:59:27.475Z,0
2017-09-14T04:00:07.982Z,0
2017-09-14T04:00:48.527Z,0
2017-09-14T04:01:29.048Z,0
2017-09-14T04:02:09.568Z,0
2017-09-14T04:02:50.112Z,0
2017-09-14T04:03:30.628Z,0
2017-09-14T04:04:11.151Z,0
2017-09-14T04:04:51.678Z,0
2017-09-14T04:05:32.195Z,0
2017-09-14T04:06:12.722Z,0
2017-09-14T04:06:53.262Z,0
2017-09-14T04:07:33.776Z,0
2017-09-14T04:08:14.298Z,0
2017-09-14T04:08:54.835Z,0
2017-09-14T04:09:35.356Z,0
2017-09-14T04:10:15.902Z,0
2017-09-14T04:10:56.482Z,0
2017-09-14T04:11:37.038Z,0
2017-09-14T04:12:17.559Z,0
2017-09-14T04:12:58.078Z,0
2017-09-14T04:13:38.600Z,0
2017-09-14T04:14:19.125Z,0
2017-09-14T04:14:59.675Z,0
2017-09-14T04:15:40.208Z,0
2017-09-14T04:16:20.745Z,0
2017-09-14T04:17:01.256Z,0
2017-09-14T04:17:41.757Z,0
2017-09-14T04:18:22.253Z,0
2017-09-14T04:19:02.802Z,0
2017-09-14T04:19:43.332Z,0
2017-09-14T04:20:23.856Z,0
2017-09-14T04:21:04.369Z,0
2017-09-14T04:21:45.197Z,0
2017-09-14T04:22:25.707Z,0
2017-09-14T04:23:06.244Z,0
2017-09-14T04:23:46.774Z,0
2017-09-14T04:24:27.303Z,0
2017-09-14T04:25:07.827Z,0
2017-09-14T04:25:48.354Z,0
2017-09-14T04:26:28.868Z,0
2017-09-14T04:27:09.400Z,0
2017-09-14T04:27:49.901Z,0
2017-09-14T04:28:30.404Z,0
2017-09-14T04:29:10.936Z,0
2017-09-14T04:29:51.502Z,0
2017-09-14T04:30:32.028Z,0
2017-09-14T04:31:12.559Z,0
2017-09-14T04:31:53.100Z,0
2017-09-14T04:32:33.618Z,0
2017-09-14T04:33:14.153Z,0
2017-09-14T04:33:54.683Z,0
2017-09-14T04:34:35.186Z,0
2017-09-14T04:35:15.726Z,0
2017-09-14T04:35:56.251Z,0
2017-09-14T04:36:36.777Z,0
2017-09-14T04:37:17.301Z,0
2017-09-14T04:37:57.836Z,0
2017-09-14T04:38:38.355Z,0
2017-09-14T04:39:18.859Z,0
2017-09-14T04:39:59.362Z,0
2017-09-14T04:40:39.873Z,0
2017-09-14T04:41:20.381Z,0
2017-09-14T04:42:00.904Z,0
2017-09-14T04:42:41.410Z,0
2017-09-14T04:43:21.952Z,0
2017-09-14T04:44:02.473Z,0
2017-09-14T04:44:43.005Z,0
2017-09-14T04:45:23.593Z,0
2017-09-14T04:46:04.083Z,0
2017-09-14T04:46:44.609Z,0
2017-09-14T04:47:25.115Z,4
2017-09-14T04:48:05.630Z,4
2017-09-14T04:48:46.275Z,4
2017-09-14T04:49:26.809Z,4
2017-09-14T04:50:07.292Z,4
2017-09-14T04:50:47.813Z,0
2017-09-14T04:51:28.301Z,4
2017-09-14T04:52:08.931Z,4
2017-09-14T04:52:49.387Z,4
2017-09-14T04:53:30.559Z,4
2017-09-14T04:54:11.085Z,4
2017-09-14T04:54:51.596Z,8
2017-09-14T04:55:32.139Z,8
2017-09-14T04:56:12.658Z,8
2017-09-14T04:56:53.194Z,8
2017-09-14T04:57:33.701Z,12
2017-09-14T04:58:14.205Z,8
2017-09-14T04:58:54.774Z,12
2017-09-14T04:59:35.317Z,12
2017-09-14T05:00:15.890Z,12
2017-09-14T05:00:56.444Z,16
2017-09-14T05:01:36.962Z,16
2017-09-14T05:02:17.492Z,20
2017-09-14T05:02:58.049Z,20
2017-09-14T05:03:38.538Z,24
2017-09-14T05:04:19.058Z,24
2017-09-14T05:04:59.588Z,28
2017-09-14T05:05:40.100Z,32
2017-09-14T05:06:20.643Z,32
2017-09-14T05:07:01.169Z,32
2017-09-14T05:07:41.704Z,36
2017-09-14T05:08:22.224Z,32
2017-09-14T05:09:02.753Z,32
2017-09-14T05:09:43.298Z,32
2017-09-14T05:10:23.818Z,36
2017-09-14T05:11:04.342Z,32
2017-09-14T05:11:44.845Z,32
2017-09-14T05:12:25.369Z,36
2017-09-14T05:13:05.908Z,36
2017-09-14T05:13:46.397Z,36
2017-09-14T05:14:26.912Z,40
2017-09-14T05:15:07.420Z,40
2017-09-14T05:15:47.939Z,44
2017-09-14T05:16:28.459Z,44
2017-09-14T05:17:08.965Z,44
2017-09-14T05:17:49.493Z,44
2017-09-14T05:18:30.018Z,40
2017-09-14T05:19:10.521Z,40
2017-09-14T05:19:51.058Z,40
2017-09-14T05:20:31.563Z,48
2017-09-14T05:21:12.089Z,52
2017-09-14T05:21:52.594Z,56
2017-09-14T05:22:33.109Z,60
2017-09-14T05:23:13.606Z,72
2017-09-14T05:23:54.123Z,88
2017-09-14T05:24:34.628Z,92
2017-09-14T05:25:15.158Z,88
2017-09-14T05:25:55.709Z,92
2017-09-14T05:26:36.208Z,100
2017-09-14T05:27:16.709Z,104
2017-09-14T05:27:57.233Z,112
2017-09-14T05:28:37.754Z,108
2017-09-14T05:29:18.254Z,116
2017-09-14T05:29:58.746Z,120
2017-09-14T05:30:39.261Z,120
2017-09-14T05:31:19.795Z,132
2017-09-14T05:32:01.017Z,132
2017-09-14T05:32:41.615Z,132
2017-09-14T05:33:22.136Z,128
2017-09-14T05:34:02.671Z,128
2017-09-14T05:34:43.179Z,128
2017-09-14T05:35:23.680Z,132
2017-09-14T05:36:04.220Z,128
2017-09-14T05:36:44.744Z,120
2017-09-14T05:37:25.241Z,116
2017-09-14T05:38:05.780Z,120
2017-09-14T05:38:46.305Z,128
2017-09-14T05:39:26.806Z,140
2017-09-14T05:40:07.348Z,148
2017-09-14T05:40:47.884Z,160
2017-09-14T05:41:28.401Z,160
2017-09-14T05:42:08.913Z,156
2017-09-14T05:42:49.434Z,152
2017-09-14T05:43:29.943Z,172
2017-09-14T05:44:10.449Z,196
2017-09-14T05:44:50.968Z,212
2017-09-14T05:45:31.522Z,208
2017-09-14T05:46:12.028Z,208
2017-09-14T05:46:52.572Z,208
2017-09-14T05:47:33.130Z,196
2017-09-14T05:48:13.659Z,192
2017-09-14T05:48:54.198Z,184
2017-09-14T05:49:34.721Z,180
2017-09-14T05:50:15.238Z,196
2017-09-14T05:50:55.757Z,220
2017-09-14T05:51:36.318Z,232
2017-09-14T05:52:16.834Z,208
2017-09-14T05:52:57.354Z,164
2017-09-14T05:53:37.886Z,144
2017-09-14T05:54:18.408Z,140
2017-09-14T05:54:58.923Z,140
2017-09-14T05:55:39.427Z,140
2017-09-14T05:56:19.955Z,160
2017-09-14T05:57:00.488Z,192
2017-09-14T05:57:40.987Z,224
2017-09-14T05:58:21.522Z,228
2017-09-14T05:59:02.131Z,216
2017-09-14T05:59:42.716Z,220
2017-09-14T06:00:23.256Z,244
2017-09-14T06:01:03.802Z,296
2017-09-14T06:01:44.348Z,352
2017-09-14T06:02:24.936Z,400
2017-09-14T06:03:05.482Z,424
2017-09-14T06:03:46.107Z,428
2017-09-14T06:04:26.730Z,424
2017-09-14T06:05:07.267Z,452
2017-09-14T06:05:48.066Z,464
2017-09-14T06:06:28.569Z,452
2017-09-14T06:07:09.178Z,476
2017-09-14T06:07:49.677Z,528
2017-09-14T06:08:30.210Z,592
2017-09-14T06:09:10.900Z,576
2017-09-14T06:09:51.402Z,560
2017-09-14T06:10:31.928Z,556
2017-09-14T06:11:12.449Z,572
2017-09-14T06:11:52.954Z,576
2017-09-14T06:12:33.627Z,540
2017-09-14T06:13:14.270Z,456
2017-09-14T06:13:54.799Z,344
2017-09-14T06:14:35.318Z,300
2017-09-14T06:15:15.856Z,292
2017-09-14T06:15:56.362Z,340
2017-09-14T06:16:36.989Z,384
2017-09-14T06:17:17.591Z,388
2017-09-14T06:17:58.227Z,384
2017-09-14T06:18:38.743Z,396
2017-09-14T06:19:19.206Z,400
2017-09-14T06:19:59.866Z,404
2017-09-14T06:20:40.364Z,368
2017-09-14T06:21:20.869Z,328
2017-09-14T06:22:01.368Z,300
2017-09-14T06:22:41.923Z,288
2017-09-14T06:23:22.492Z,312
2017-09-14T06:24:02.992Z,348
2017-09-14T06:24:43.520Z,368
2017-09-14T06:25:24.047Z,444
2017-09-14T06:26:04.564Z,568
2017-09-14T06:26:45.085Z,672
2017-09-14T06:27:25.585Z,648
2017-09-14T06:28:06.103Z,596
2017-09-14T06:28:46.608Z,552
2017-09-14T06:29:27.144Z,540
2017-09-14T06:30:07.664Z,612
2017-09-14T06:30:48.178Z,656
2017-09-14T06:31:28.717Z,720
2017-09-14T06:32:09.232Z,724
2017-09-14T06:32:49.739Z,700
2017-09-14T06:33:30.268Z,668
2017-09-14T06:34:10.801Z,600
2017-09-14T06:34:51.338Z,544
2017-09-14T06:35:31.839Z,544
2017-09-14T06:36:12.361Z,580
2017-09-14T06:36:52.892Z,612
2017-09-14T06:37:33.415Z,640
2017-09-14T06:38:13.937Z,588
2017-09-14T06:38:54.450Z,568
2017-09-14T06:39:34.955Z,632
2017-09-14T06:40:15.476Z,608
2017-09-14T06:40:56.022Z,560
2017-09-14T06:41:36.542Z,604
2017-09-14T06:42:17.069Z,640
2017-09-14T06:42:57.583Z,576
2017-09-14T06:43:38.125Z,428
2017-09-14T06:44:18.619Z,340
2017-09-14T06:44:59.139Z,328
2017-09-14T06:45:39.676Z,324
2017-09-14T06:46:20.224Z,284
2017-09-14T06:47:00.724Z,256
2017-09-14T06:47:41.236Z,240
2017-09-14T06:48:21.775Z,264
2017-09-14T06:49:02.309Z,348
2017-09-14T06:49:42.823Z,512
2017-09-14T06:50:23.367Z,740
2017-09-14T06:51:03.894Z,944
2017-09-14T06:51:44.423Z,1084
2017-09-14T06:52:24.947Z,1040
2017-09-14T06:53:05.487Z,816
2017-09-14T06:53:45.996Z,700
2017-09-14T06:54:26.543Z,604
2017-09-14T06:55:07.029Z,568
2017-09-14T06:55:47.538Z,540
2017-09-14T06:56:28.070Z,552
2017-09-14T06:57:08.602Z,612
2017-09-14T06:57:49.114Z,632
2017-09-14T06:58:29.650Z,640
2017-09-14T06:59:10.178Z,660
2017-09-14T06:59:50.717Z,660
2017-09-14T07:00:31.247Z,692
2017-09-14T07:01:11.780Z,728
2017-09-14T07:01:52.289Z,716
2017-09-14T07:02:32.824Z,736
2017-09-14T07:03:13.341Z,800
2017-09-14T07:03:53.867Z,908
2017-09-14T07:04:34.387Z,1060
2017-09-14T07:05:14.927Z,1192
2017-09-14T07:05:55.473Z,1304
2017-09-14T07:06:35.999Z,1412
2017-09-14T07:07:16.518Z,1504
2017-09-14T07:07:57.038Z,1568
2017-09-14T07:08:37.575Z,1600
2017-09-14T07:09:18.139Z,1460
2017-09-14T07:09:58.656Z,1304
2017-09-14T07:10:39.188Z,1312
2017-09-14T07:11:19.704Z,1432
2017-09-14T07:12:00.210Z,1608
2017-09-14T07:12:40.737Z,1812
2017-09-14T07:13:21.253Z,1900
2017-09-14T07:14:01.779Z,1800
2017-09-14T07:14:42.301Z,1468
2017-09-14T07:15:22.824Z,1088
2017-09-14T07:16:03.353Z,904
2017-09-14T07:16:43.866Z,808
2017-09-14T07:17:24.403Z,788
2017-09-14T07:18:04.943Z,888
2017-09-14T07:18:45.465Z,1120
2017-09-14T07:19:25.990Z,1396
2017-09-14T07:20:06.513Z,1432
2017-09-14T07:20:47.012Z,1356
2017-09-14T07:21:27.538Z,992
2017-09-14T07:22:08.073Z,788
2017-09-14T07:22:48.608Z,712
2017-09-14T07:23:29.136Z,780
2017-09-14T07:24:09.640Z,952
2017-09-14T07:24:50.157Z,1072
2017-09-14T07:25:30.659Z,1064
2017-09-14T07:26:11.191Z,1068
2017-09-14T07:26:51.731Z,1060
2017-09-14T07:27:32.258Z,1120
2017-09-14T07:28:12.797Z,1120
2017-09-14T07:28:53.319Z,944
2017-09-14T07:29:33.891Z,808
2017-09-14T07:30:14.411Z,652
2017-09-14T07:30:54.923Z,548
2017-09-14T07:31:35.462Z,604
2017-09-14T07:32:15.968Z,808
2017-09-14T07:32:56.485Z,1084
2017-09-14T07:33:37.012Z,1156
2017-09-14T07:34:17.546Z,1208
2017-09-14T07:34:58.075Z,1392
2017-09-14T07:35:38.606Z,1516
2017-09-14T07:36:19.150Z,1536
2017-09-14T07:36:59.680Z,1476
2017-09-14T07:37:40.210Z,1372
2017-09-14T07:38:20.722Z,1116
2017-09-14T07:39:01.243Z,704
2017-09-14T07:39:41.766Z,552
2017-09-14T07:40:22.283Z,676
2017-09-14T07:41:02.811Z,1036
2017-09-14T07:41:43.356Z,1304
2017-09-14T07:42:23.874Z,1412
2017-09-14T07:43:04.395Z,1500
2017-09-14T07:43:44.917Z,1612
2017-09-14T07:44:25.465Z,1708
2017-09-14T07:45:05.996Z,1720
2017-09-14T07:45:46.531Z,1740
2017-09-14T07:46:27.068Z,2016
2017-09-14T07:47:07.598Z,1576
2017-09-14T07:47:48.116Z,1504
2017-09-14T07:48:28.651Z,1508
2017-09-14T07:49:09.171Z,1440
2017-09-14T07:49:49.688Z,1168
2017-09-14T07:50:30.205Z,1040
2017-09-14T07:51:10.728Z,932
2017-09-14T07:51:51.261Z,900
2017-09-14T07:52:31.791Z,1064
2017-09-14T07:53:12.329Z,988
2017-09-14T07:53:52.853Z,1236
2017-09-14T07:54:33.375Z,1392
2017-09-14T07:55:13.914Z,1140
2017-09-14T07:55:54.426Z,1044
2017-09-14T07:56:34.961Z,1268
2017-09-14T07:57:15.485Z,1372
2017-09-14T07:57:55.986Z,1176
2017-09-14T07:58:36.510Z,1116
2017-09-14T07:59:17.084Z,1364
2017-09-14T07:59:57.606Z,2156
2017-09-14T08:00:38.129Z,2548
2017-09-14T08:01:18.655Z,2280
2017-09-14T08:01:59.204Z,2412
2017-09-14T08:02:39.721Z,2300
2017-09-14T08:03:20.264Z,2180
2017-09-14T08:04:00.779Z,2028
2017-09-14T08:04:41.306Z,2024
2017-09-14T08:05:21.841Z,2144
2017-09-14T08:06:02.364Z,2296
2017-09-14T08:06:42.898Z,2412
2017-09-14T08:07:23.417Z,2408
2017-09-14T08:08:03.943Z,2372
2017-09-14T08:08:44.470Z,2336
2017-09-14T08:09:24.994Z,2316
2017-09-14T08:10:05.519Z,2376
2017-09-14T08:10:46.040Z,2508
2017-09-14T08:11:26.624Z,2680
2017-09-14T08:12:07.118Z,2912
2017-09-14T08:12:47.642Z,3044
2017-09-14T08:13:28.181Z,3124
2017-09-14T08:14:08.717Z,3304
2017-09-14T08:14:49.232Z,3804
2017-09-14T08:15:29.763Z,4888
2017-09-14T08:16:10.265Z,5444
2017-09-14T08:16:50.804Z,5388
2017-09-14T08:17:31.331Z,5912
2017-09-14T08:18:11.869Z,6976
2017-09-14T08:18:52.391Z,6700
2017-09-14T08:19:32.918Z,5872
2017-09-14T08:20:13.448Z,5628
2017-09-14T08:20:53.970Z,5204
2017-09-14T08:21:34.501Z,4716
2017-09-14T08:22:15.017Z,4372
2017-09-14T08:22:55.552Z,4196
2017-09-14T08:23:36.070Z,4092
2017-09-14T08:24:16.606Z,3896
2017-09-14T08:24:57.134Z,3696
2017-09-14T08:25:37.669Z,3628
2017-09-14T08:26:18.176Z,3532
2017-09-14T08:26:58.724Z,3512
2017-09-14T08:27:39.266Z,3396
2017-09-14T08:28:19.786Z,3088
2017-09-14T08:29:00.320Z,2856
2017-09-14T08:29:40.838Z,2616
2017-09-14T08:30:21.367Z,2404
2017-09-14T08:31:01.874Z,2208
2017-09-14T08:31:42.406Z,2136
2017-09-14T08:32:22.938Z,2264
2017-09-14T08:33:03.465Z,2436
2017-09-14T08:33:43.995Z,2432
2017-09-14T08:34:24.525Z,2640
2017-09-14T08:35:05.057Z,3012
2017-09-14T08:35:45.584Z,3432
2017-09-14T08:36:26.104Z,3944
2017-09-14T08:37:06.640Z,4280
2017-09-14T08:37:47.157Z,4512
2017-09-14T08:38:27.696Z,4496
2017-09-14T08:39:08.223Z,4348
2017-09-14T08:39:48.766Z,4372
2017-09-14T08:40:29.293Z,4396
2017-09-14T08:41:09.826Z,4424
2017-09-14T08:41:50.348Z,4592
2017-09-14T08:42:30.864Z,4676
2017-09-14T08:43:11.393Z,4820
2017-09-14T08:43:51.888Z,5072
2017-09-14T08:44:32.399Z,5068
2017-09-14T08:45:12.932Z,5040
2017-09-14T08:45:53.450Z,5192
2017-09-14T08:46:33.977Z,5744
2017-09-14T08:47:14.516Z,6628
2017-09-14T08:47:55.029Z,7932
2017-09-14T08:48:35.568Z,8908
2017-09-14T08:49:16.100Z,9716
2017-09-14T08:49:56.638Z,9888
2017-09-14T08:50:37.176Z,10028
2017-09-14T08:51:17.696Z,10648
2017-09-14T08:51:58.209Z,10152
2017-09-14T08:52:38.739Z,9972
2017-09-14T08:53:19.274Z,11024
2017-09-14T08:53:59.762Z,13772
2017-09-14T08:54:40.294Z,13416
2017-09-14T08:55:20.817Z,18240
2017-09-14T08:56:01.387Z,15804
2017-09-14T08:56:41.924Z,13696
2017-09-14T08:57:22.441Z,11992
2017-09-14T08:58:02.957Z,11840
2017-09-14T08:58:43.489Z,10160
2017-09-14T08:59:24.046Z,8900
2017-09-14T09:00:04.550Z,9720
2017-09-14T09:00:45.071Z,11072
2017-09-14T09:01:25.603Z,9536
2017-09-14T09:02:06.115Z,8336
2017-09-14T09:02:46.636Z,9188
2017-09-14T09:03:27.156Z,10732
2017-09-14T09:04:07.701Z,9900
2017-09-14T09:04:48.215Z,7856
2017-09-14T09:05:28.737Z,6948
2017-09-14T09:06:09.257Z,6032
2017-09-14T09:06:49.785Z,6604
2017-09-14T09:07:30.320Z,7224
2017-09-14T09:08:10.860Z,6384
2017-09-14T09:08:51.380Z,7568
2017-09-14T09:09:31.921Z,8620
2017-09-14T09:10:12.412Z,7272
2017-09-14T09:10:52.927Z,8768
2017-09-14T09:11:33.451Z,12636
2017-09-14T09:12:13.978Z,10208
2017-09-14T09:12:54.501Z,8356
2017-09-14T09:13:35.048Z,9220
2017-09-14T09:14:15.577Z,7656
2017-09-14T09:14:56.103Z,6272
2017-09-14T09:15:36.670Z,5328
2017-09-14T09:16:17.206Z,5964
2017-09-14T09:16:57.739Z,6632
2017-09-14T09:17:38.274Z,7828
2017-09-14T09:18:18.804Z,7788
2017-09-14T09:18:59.332Z,7352
2017-09-14T09:19:39.864Z,7508
2017-09-14T09:20:20.393Z,6340
2017-09-14T09:21:00.918Z,4232
2017-09-14T09:21:41.433Z,2872
2017-09-14T09:22:21.968Z,2840
2017-09-14T09:23:02.504Z,3392
2017-09-14T09:23:43.027Z,4492
2017-09-14T09:24:23.561Z,4108
2017-09-14T09:25:04.073Z,3388
2017-09-14T09:25:44.606Z,3540
2017-09-14T09:26:25.124Z,3216
2017-09-14T09:27:05.646Z,2688
2017-09-14T09:27:46.168Z,3292
2017-09-14T09:28:26.707Z,4572
2017-09-14T09:29:07.228Z,6028
2017-09-14T09:29:47.778Z,6576
2017-09-14T09:30:28.285Z,6236
2017-09-14T09:31:08.820Z,6928
2017-09-14T09:31:49.378Z,6876
2017-09-14T09:32:29.868Z,8200
2017-09-14T09:33:10.411Z,8020
2017-09-14T09:33:50.924Z,8508
2017-09-14T09:34:31.460Z,8840